Terminal Aerodrome Forecast
Issued by NWS

Home | Current Version | Previous Version | Text Only | Print | Product List | Glossary On
Versions: 1 2 3 4 5 6 7 8 9 10 11 12 13 14 15 16 17
000
FTUS43 KDTX 261727
TAFMBS
TAF
KMBS 261727Z 2618/2718 21013G20KT P6SM OVC150
     FM261900 23023G33KT P6SM OVC040
     FM270100 25013KT P6SM BKN040
     FM270800 25005KT P6SM SCT025 BKN040=

USA.gov is the U.S. government's official web portal to all federal, state and local government web resources and services.